Time;durP1;ratioP1;P1;durP2;ratioP2;P2;SDS_P1;SDS_P2;PMS_P1;PMS_P2;Temp;Humidity;BMP_temperature;BMP_pressure;BME280_temperature;BME280_humidity;BME280_pressure;Samples;Min_cycle;Max_cycle;Signal;HPM_P1;HPM_P2
2023/03/15 00:01:11;;;;;;;3.43;1.93;;;5.40;99.90;;;;;;5014100;28;20170;-81
2023/03/15 00:03:38;;;;;;;7.40;1.60;;;5.40;99.90;;;;;;5013816;28;21002;-81
2023/03/15 00:06:04;;;;;;;6.00;1.88;;;5.40;99.90;;;;;;5014210;28;20253;-81
2023/03/15 00:08:33;;;;;;;5.60;2.70;;;5.40;99.90;;;;;;5014023;28;20568;-82
2023/03/15 00:10:59;;;;;;;6.20;2.10;;;5.50;99.90;;;;;;5014445;28;20173;-82
2023/03/15 00:13:25;;;;;;;5.20;2.47;;;5.50;99.90;;;;;;5012330;28;20289;-82
2023/03/15 00:15:55;;;;;;;6.68;5.20;;;5.50;99.90;;;;;;5012507;28;20171;-81
2023/03/15 00:18:21;;;;;;;5.85;3.45;;;5.50;99.90;;;;;;5014104;28;20530;-81
2023/03/15 00:20:47;;;;;;;6.85;2.80;;;5.50;99.90;;;;;;5018048;28;20254;-81
2023/03/15 00:23:14;;;;;;;4.95;2.75;;;5.60;99.90;;;;;;5013646;28;20165;-81
2023/03/15 00:25:42;;;;;;;4.40;2.90;;;5.60;99.90;;;;;;5013368;28;20174;-81
2023/03/15 00:28:08;;;;;;;6.13;2.90;;;5.60;99.90;;;;;;5013549;28;20202;-81
2023/03/15 00:30:33;;;;;;;4.03;2.00;;;5.70;99.90;;;;;;5012240;28;20200;-81
2023/03/15 00:32:59;;;;;;;6.30;2.57;;;5.70;99.90;;;;;;5012136;28;20221;-81
2023/03/15 00:35:25;;;;;;;6.53;2.57;;;5.80;99.90;;;;;;5013922;28;20558;-81
2023/03/15 00:37:55;;;;;;;5.63;1.40;;;5.80;99.90;;;;;;5011913;28;20264;-81
2023/03/15 00:40:21;;;;;;;11.48;4.05;;;5.90;99.90;;;;;;5012516;28;20524;-81
2023/03/15 00:42:50;;;;;;;5.90;1.70;;;5.90;99.90;;;;;;5012970;28;20174;-81
2023/03/15 00:45:20;;;;;;;5.93;2.03;;;5.90;99.90;;;;;;4995957;28;20206;-81
2023/03/15 00:47:51;;;;;;;5.10;2.15;;;5.90;99.90;;;;;;5013362;28;20220;-81
2023/03/15 00:50:17;;;;;;;7.07;2.10;;;6.00;99.90;;;;;;4996231;28;20174;-80
2023/03/15 00:52:43;;;;;;;3.13;1.50;;;6.00;99.90;;;;;;5011453;28;20175;-81
2023/03/15 00:55:14;;;;;;;4.83;1.93;;;6.00;99.90;;;;;;4995263;28;20605;-81
2023/03/15 00:57:41;;;;;;;7.13;1.92;;;6.00;99.90;;;;;;5016243;28;20620;-81
2023/03/15 01:00:13;;;;;;;8.10;1.70;;;6.00;99.90;;;;;;5011746;28;20192;-81
2023/03/15 01:02:39;;;;;;;3.92;2.20;;;6.00;99.90;;;;;;5011860;28;20181;-82
2023/03/15 01:05:07;;;;;;;7.03;1.95;;;6.10;99.90;;;;;;5011422;28;20191;-81
2023/03/15 01:07:33;;;;;;;4.15;2.40;;;6.10;99.90;;;;;;5028355;28;20213;-81
2023/03/15 01:10:04;;;;;;;5.80;2.38;;;6.10;99.90;;;;;;4994957;28;20170;-81
2023/03/15 01:12:31;;;;;;;6.35;2.70;;;6.10;99.90;;;;;;5012807;28;20167;-81
2023/03/15 01:14:57;;;;;;;5.47;2.60;;;6.10;99.90;;;;;;5011244;28;20185;-81
2023/03/15 01:17:23;;;;;;;7.50;2.30;;;6.00;99.90;;;;;;5028232;28;20296;-80
2023/03/15 01:19:50;;;;;;;4.80;2.37;;;6.00;99.90;;;;;;5012737;28;20213;-80
2023/03/15 01:22:18;;;;;;;7.03;1.70;;;6.00;99.90;;;;;;5010778;28;20178;-81
2023/03/15 01:24:44;;;;;;;4.85;2.30;;;6.00;99.90;;;;;;5011756;28;20174;-81
2023/03/15 01:27:11;;;;;;;5.90;2.38;;;6.00;99.90;;;;;;5010845;28;20210;-80
2023/03/15 01:29:37;;;;;;;8.02;2.40;;;6.00;99.90;;;;;;5028023;28;20213;-80
2023/03/15 01:32:05;;;;;;;6.22;2.58;;;6.00;99.90;;;;;;5011079;28;20197;-80
2023/03/15 01:34:31;;;;;;;5.00;2.30;;;6.00;99.90;;;;;;5000034;28;20188;-81
2023/03/15 01:36:57;;;;;;;5.53;3.20;;;6.10;99.90;;;;;;4994548;28;20202;-80
2023/03/15 01:39:29;;;;;;;6.13;3.20;;;6.00;99.90;;;;;;4994881;28;20227;-80
2023/03/15 01:41:55;;;;;;;8.85;3.00;;;6.10;99.90;;;;;;5010860;28;20178;-80
2023/03/15 01:44:23;;;;;;;4.60;2.67;;;6.00;99.90;;;;;;5010775;28;20217;-80
2023/03/15 01:46:49;;;;;;;5.60;2.33;;;6.00;99.90;;;;;;5010752;28;20728;-77
2023/03/15 01:49:27;;;;;;;4.65;2.17;;;6.00;99.90;;;;;;5011401;28;20257;-77
2023/03/15 01:51:58;;;;;;;5.95;2.60;;;5.90;99.90;;;;;;5011898;28;20166;-77
2023/03/15 01:54:46;;;;;;;7.40;2.30;;;5.90;99.90;;;;;;4978262;28;20181;-77
2023/03/15 01:57:28;;;;;;;4.25;2.50;;;5.90;99.90;;;;;;5010072;28;20202;-77
2023/03/15 02:00:10;;;;;;;4.25;1.90;;;5.80;99.90;;;;;;5010539;28;20602;-77
2023/03/15 02:03:08;;;;;;;2.97;1.80;;;5.70;99.90;;;;;;4993004;28;20589;-76
2023/03/15 02:05:44;;;;;;;3.72;1.75;;;5.70;99.90;;;;;;5010671;28;20543;-77
2023/03/15 02:08:16;;;;;;;7.90;2.28;;;5.70;99.90;;;;;;5010676;28;20268;-78
2023/03/15 02:10:46;;;;;;;4.22;2.25;;;5.70;99.90;;;;;;5014077;28;20176;-78
2023/03/15 02:13:16;;;;;;;5.07;2.33;;;5.60;99.90;;;;;;4989983;28;20880;-78
2023/03/15 02:15:45;;;;;;;2.97;1.63;;;5.60;99.90;;;;;;5009839;28;20170;-78
2023/03/15 02:18:15;;;;;;;2.65;1.38;;;5.50;99.90;;;;;;4994350;28;20201;-78
2023/03/15 02:20:59;;;;;;;5.65;1.85;;;5.50;99.90;;;;;;5004418;28;20181;-78
2023/03/15 02:23:25;;;;;;;3.00;1.90;;;5.40;99.90;;;;;;4993431;28;20209;-78
2023/03/15 02:26:23;;;;;;;3.72;2.15;;;5.30;99.90;;;;;;5010451;28;20201;-78
2023/03/15 02:28:50;;;;;;;3.13;1.75;;;5.30;99.90;;;;;;4993150;28;20619;-77
2023/03/15 02:31:19;;;;;;;2.42;1.27;;;5.10;99.90;;;;;;4990588;28;20269;-77
2023/03/15 02:33:49;;;;;;;2.47;1.65;;;5.00;99.90;;;;;;4974100;28;20727;-77
2023/03/15 02:36:20;;;;;;;3.25;1.30;;;4.90;99.90;;;;;;4974736;28;20179;-77
2023/03/15 02:38:47;;;;;;;2.08;1.10;;;4.90;99.90;;;;;;4990132;28;20233;-77
2023/03/15 02:41:16;;;;;;;1.92;1.52;;;4.80;99.90;;;;;;4974257;28;20237;-78
2023/03/15 02:43:43;;;;;;;2.60;1.40;;;4.70;99.90;;;;;;4989721;28;20225;-78
2023/03/15 02:46:09;;;;;;;4.13;1.88;;;4.60;99.90;;;;;;4997415;28;20214;-78
2023/03/15 02:48:36;;;;;;;2.78;1.55;;;4.50;99.90;;;;;;4998616;28;20209;-78
2023/03/15 02:51:02;;;;;;;1.92;1.20;;;4.40;99.90;;;;;;4993474;28;20198;-79
2023/03/15 02:53:30;;;;;;;1.52;0.90;;;4.40;99.90;;;;;;4993209;28;20677;-79
2023/03/15 02:55:57;;;;;;;2.33;1.05;;;4.30;99.90;;;;;;5009763;28;20646;-79
2023/03/15 02:58:23;;;;;;;4.40;1.33;;;4.30;99.90;;;;;;5009720;28;20249;-79
2023/03/15 03:00:51;;;;;;;2.17;1.30;;;4.30;99.90;;;;;;4993370;28;20585;-78
2023/03/15 03:03:17;;;;;;;1.90;1.17;;;4.20;99.90;;;;;;5026064;28;20193;-79
2023/03/15 03:05:43;;;;;;;2.33;1.10;;;4.20;99.90;;;;;;4976832;28;20174;-78
2023/03/15 03:08:09;;;;;;;2.30;1.10;;;4.20;99.90;;;;;;5010646;28;20240;-79
2023/03/15 03:10:35;;;;;;;2.40;1.60;;;4.20;99.90;;;;;;5013868;28;20199;-78
2023/03/15 03:13:01;;;;;;;2.03;1.33;;;4.20;99.90;;;;;;5013179;28;20179;-78
2023/03/15 03:15:31;;;;;;;2.30;1.00;;;4.20;99.90;;;;;;4997635;28;20639;-78
2023/03/15 03:17:57;;;;;;;2.37;1.40;;;4.20;99.90;;;;;;5013134;28;20205;-78
2023/03/15 03:20:23;;;;;;;1.93;1.23;;;4.10;99.90;;;;;;4995607;28;20322;-78
2023/03/15 03:22:49;;;;;;;2.35;1.10;;;4.10;99.90;;;;;;5013126;28;20175;-78
2023/03/15 03:25:16;;;;;;;1.70;1.10;;;4.10;99.90;;;;;;5001983;28;20162;-78
2023/03/15 03:27:42;;;;;;;2.60;1.50;;;4.10;99.90;;;;;;4997068;28;20304;-78
2023/03/15 03:30:12;;;;;;;1.52;1.05;;;4.10;99.90;;;;;;5013811;28;20179;-78
2023/03/15 03:32:41;;;;;;;2.22;1.40;;;4.10;99.90;;;;;;5012998;28;20179;-78
2023/03/15 03:35:07;;;;;;;2.00;1.20;;;4.10;99.90;;;;;;5014565;28;20676;-78
2023/03/15 03:37:34;;;;;;;2.10;1.45;;;4.20;99.90;;;;;;5030147;28;20206;-78
2023/03/15 03:40:07;;;;;;;2.05;1.70;;;4.20;99.90;;;;;;4996707;28;20217;-78
2023/03/15 03:42:33;;;;;;;2.22;1.58;;;4.20;99.90;;;;;;5029381;28;20265;-78
2023/03/15 03:45:00;;;;;;;2.70;2.05;;;4.20;99.90;;;;;;4996690;28;20667;-78
2023/03/15 03:47:31;;;;;;;3.30;2.55;;;4.20;99.90;;;;;;5013273;28;20260;-78
2023/03/15 03:49:57;;;;;;;3.47;2.05;;;4.30;99.90;;;;;;4996675;28;20659;-78
2023/03/15 03:52:22;;;;;;;2.67;1.70;;;4.30;99.90;;;;;;4996544;28;20213;-78
2023/03/15 03:54:50;;;;;;;3.75;2.53;;;4.30;99.90;;;;;;5012686;28;20170;-78
2023/03/15 03:57:16;;;;;;;2.30;1.63;;;4.30;99.90;;;;;;5012891;28;20210;-78
2023/03/15 03:59:42;;;;;;;2.00;1.60;;;4.30;99.90;;;;;;4996640;28;20170;-78
2023/03/15 04:02:08;;;;;;;2.35;1.90;;;4.30;99.90;;;;;;4998979;28;21153;-78
2023/03/15 04:04:35;;;;;;;3.00;2.10;;;4.40;99.90;;;;;;4998701;28;20269;-78
2023/03/15 04:07:02;;;;;;;2.78;1.88;;;4.40;99.90;;;;;;5012246;28;20214;-78
2023/03/15 04:09:36;;;;;;;3.00;1.75;;;4.40;99.90;;;;;;5013126;28;20257;-78
2023/03/15 04:12:04;;;;;;;3.83;1.50;;;4.40;99.90;;;;;;5030751;28;20182;-78
2023/03/15 04:14:31;;;;;;;4.70;2.30;;;4.40;99.90;;;;;;5012913;28;20175;-78
2023/03/15 04:16:57;;;;;;;4.47;2.25;;;4.50;99.90;;;;;;5012059;28;20204;-78
2023/03/15 04:19:23;;;;;;;2.67;1.85;;;4.50;99.90;;;;;;4995454;28;20228;-78
2023/03/15 04:21:51;;;;;;;3.15;1.45;;;4.50;99.90;;;;;;4995432;28;20179;-78
2023/03/15 04:24:49;;;;;;;4.38;1.90;;;4.50;99.90;;;;;;5000578;28;20185;-78
2023/03/15 04:27:24;;;;;;;1.70;1.30;;;4.50;99.90;;;;;;4996129;28;20252;-78
2023/03/15 04:30:16;;;;;;;2.88;1.60;;;4.60;99.90;;;;;;5013911;28;20170;-78
2023/03/15 04:33:02;;;;;;;3.10;2.30;;;4.60;99.90;;;;;;5028637;28;20273;-78
2023/03/15 04:36:01;;;;;;;2.08;1.40;;;4.60;99.90;;;;;;4991010;28;20205;-78
2023/03/15 04:38:45;;;;;;;4.28;2.00;;;4.70;99.90;;;;;;5012418;28;20269;-78
2023/03/15 04:41:38;;;;;;;3.00;1.85;;;4.70;99.90;;;;;;5012173;28;20228;-78
2023/03/15 04:44:20;;;;;;;5.90;2.25;;;4.70;99.90;;;;;;5012157;28;20194;-76
2023/03/15 04:46:50;;;;;;;3.72;1.75;;;4.70;99.90;;;;;;5011884;28;20224;-78
2023/03/15 04:49:36;;;;;;;2.28;2.08;;;4.70;99.90;;;;;;5011662;28;20182;-78
2023/03/15 04:52:14;;;;;;;2.78;1.55;;;4.70;99.90;;;;;;5011906;28;20178;-77
2023/03/15 04:55:06;;;;;;;2.40;1.80;;;4.60;99.90;;;;;;5012112;28;20175;-78
2023/03/15 04:57:48;;;;;;;2.70;1.70;;;4.60;99.90;;;;;;5012217;28;20201;-78
2023/03/15 05:00:30;;;;;;;1.73;1.25;;;4.50;99.90;;;;;;5011940;28;20185;-78
2023/03/15 05:03:16;;;;;;;1.70;1.15;;;4.50;99.90;;;;;;4997580;28;20186;-77
2023/03/15 05:05:48;;;;;;;2.40;1.48;;;4.40;99.90;;;;;;5012012;28;20193;-77
2023/03/15 05:08:35;;;;;;;2.20;1.55;;;4.30;99.90;;;;;;5011735;28;20202;-77
2023/03/15 05:11:19;;;;;;;2.30;1.90;;;4.30;99.90;;;;;;5027954;28;20488;-77
2023/03/15 05:14:02;;;;;;;2.60;2.15;;;4.30;99.90;;;;;;5010444;28;20174;-77
2023/03/15 05:16:48;;;;;;;3.08;1.77;;;4.30;99.90;;;;;;5011432;28;20193;-77
2023/03/15 05:19:33;;;;;;;3.60;1.67;;;4.30;99.90;;;;;;5009617;28;20173;-77
2023/03/15 05:22:24;;;;;;;2.38;1.67;;;4.30;99.90;;;;;;5010753;28;20308;-77
2023/03/15 05:25:10;;;;;;;2.70;1.58;;;4.30;99.90;;;;;;4980802;28;20193;-77
2023/03/15 05:27:57;;;;;;;2.45;1.45;;;4.30;99.90;;;;;;4995113;28;20890;-77
2023/03/15 05:30:31;;;;;;;1.80;1.40;;;4.30;99.90;;;;;;4994773;28;20181;-77
2023/03/15 05:33:14;;;;;;;2.92;1.77;;;4.30;99.90;;;;;;4994712;28;20220;-77
2023/03/15 05:36:02;;;;;;;3.35;2.38;;;4.30;99.90;;;;;;5027364;28;20182;-77
2023/03/15 05:38:27;;;;;;;2.75;2.08;;;4.30;99.90;;;;;;5027724;28;20182;-77
2023/03/15 05:41:19;;;;;;;2.58;2.25;;;4.30;99.90;;;;;;5008844;28;20233;-77
2023/03/15 05:44:04;;;;;;;1.90;1.67;;;4.30;99.90;;;;;;5011282;28;20332;-77
2023/03/15 05:46:54;;;;;;;2.40;2.13;;;4.30;99.90;;;;;;5010622;28;20217;-77
2023/03/15 05:49:38;;;;;;;2.50;2.10;;;4.30;99.90;;;;;;5027659;28;20178;-77
2023/03/15 05:52:25;;;;;;;3.30;3.00;;;4.30;99.90;;;;;;5011170;28;20277;-77
2023/03/15 05:55:04;;;;;;;3.65;2.85;;;4.40;99.90;;;;;;5027828;28;20269;-77
2023/03/15 05:57:53;;;;;;;3.78;3.47;;;4.40;99.90;;;;;;5002781;28;20305;-77
2023/03/15 06:00:34;;;;;;;2.75;2.47;;;4.40;99.90;;;;;;5010990;28;20673;-77
2023/03/15 06:03:07;;;;;;;2.42;2.15;;;4.40;99.90;;;;;;5010116;28;20178;-77
2023/03/15 06:05:42;;;;;;;3.55;3.25;;;4.40;99.90;;;;;;4994545;28;20631;-77
2023/03/15 06:08:13;;;;;;;4.93;4.43;;;4.50;99.90;;;;;;5009807;28;20603;-77
2023/03/15 06:10:43;;;;;;;4.90;3.78;;;4.50;99.90;;;;;;5010261;28;20181;-77
2023/03/15 06:13:10;;;;;;;5.43;4.20;;;4.60;99.90;;;;;;5009637;28;20690;-77
2023/03/15 06:15:36;;;;;;;4.85;4.15;;;4.60;99.90;;;;;;4994332;28;20216;-76
2023/03/15 06:18:03;;;;;;;3.90;3.50;;;4.60;99.90;;;;;;5009953;28;20206;-77
2023/03/15 06:20:30;;;;;;;4.50;4.10;;;4.70;99.90;;;;;;4993966;28;20170;-76
2023/03/15 06:23:01;;;;;;;4.65;4.25;;;4.70;99.90;;;;;;4994394;28;20186;-77
2023/03/15 06:25:38;;;;;;;4.90;4.03;;;4.70;99.90;;;;;;4994126;28;20177;-77
2023/03/15 06:28:04;;;;;;;4.30;3.67;;;4.70;99.90;;;;;;5010244;28;20541;-77
2023/03/15 06:30:30;;;;;;;4.17;3.80;;;4.70;99.90;;;;;;5010131;28;20182;-77
2023/03/15 06:32:58;;;;;;;4.80;4.30;;;4.70;99.90;;;;;;4993471;28;20570;-77
2023/03/15 06:35:24;;;;;;;4.20;3.80;;;4.80;99.90;;;;;;5011183;28;20669;-77
2023/03/15 06:37:51;;;;;;;4.40;4.00;;;4.80;99.90;;;;;;5010219;28;20277;-77
2023/03/15 06:40:17;;;;;;;5.15;4.65;;;4.80;99.90;;;;;;5009892;28;20609;-77
2023/03/15 06:42:45;;;;;;;4.68;3.95;;;4.90;99.90;;;;;;5009346;28;20229;-77
2023/03/15 06:45:15;;;;;;;4.10;3.70;;;4.90;99.90;;;;;;5009612;28;20642;-77
2023/03/15 06:47:41;;;;;;;5.47;4.97;;;4.90;99.90;;;;;;5009998;28;20214;-77
2023/03/15 06:50:07;;;;;;;4.23;3.83;;;4.90;99.90;;;;;;5010100;28;20700;-77
2023/03/15 06:52:33;;;;;;;4.25;3.85;;;4.90;99.90;;;;;;4993067;28;21202;-77
2023/03/15 06:54:59;;;;;;;4.67;4.27;;;5.00;99.90;;;;;;4993483;28;20170;-77
2023/03/15 06:57:25;;;;;;;7.73;4.50;;;5.00;99.90;;;;;;4993615;28;20609;-77
2023/03/15 06:59:52;;;;;;;5.40;4.90;;;5.00;99.90;;;;;;5011515;28;20177;-78
2023/03/15 07:02:18;;;;;;;5.10;4.70;;;5.10;99.90;;;;;;5009132;28;20185;-77
2023/03/15 07:04:44;;;;;;;5.23;4.73;;;5.10;99.90;;;;;;5010570;28;20265;-78
2023/03/15 07:07:11;;;;;;;4.60;4.20;;;5.10;99.90;;;;;;5008609;28;20210;-78
2023/03/15 07:09:37;;;;;;;4.90;4.50;;;5.20;99.90;;;;;;4994300;28;20185;-79
2023/03/15 07:12:03;;;;;;;5.13;4.70;;;5.30;99.90;;;;;;5025490;28;20178;-80
2023/03/15 07:14:29;;;;;;;4.45;4.05;;;5.30;99.90;;;;;;5011002;28;20624;-81
2023/03/15 07:16:55;;;;;;;6.53;5.93;;;5.40;99.90;;;;;;5010057;28;20658;-80
2023/03/15 07:19:20;;;;;;;4.70;4.30;;;5.50;99.90;;;;;;5011725;28;20170;-80
2023/03/15 07:21:46;;;;;;;5.50;4.77;;;5.50;99.90;;;;;;5011117;28;20185;-80
2023/03/15 07:24:12;;;;;;;5.60;4.87;;;5.60;99.90;;;;;;5009962;28;20197;-79
2023/03/15 07:26:37;;;;;;;5.10;4.70;;;5.60;99.90;;;;;;5019033;28;20191;-79
2023/03/15 07:29:03;;;;;;;5.33;4.63;;;5.70;99.90;;;;;;5023368;28;20279;-79
2023/03/15 07:31:29;;;;;;;5.37;4.87;;;5.80;99.90;;;;;;5026937;28;20170;-80
2023/03/15 07:33:54;;;;;;;5.53;5.03;;;5.90;99.90;;;;;;5025417;28;20501;-80
2023/03/15 07:36:21;;;;;;;5.37;4.97;;;5.90;99.90;;;;;;5024490;28;20581;-79
2023/03/15 07:38:47;;;;;;;6.10;5.55;;;5.90;99.90;;;;;;5023997;28;20238;-80
2023/03/15 07:41:16;;;;;;;5.25;4.75;;;6.00;99.90;;;;;;5037324;28;20175;-81
2023/03/15 07:43:53;;;;;;;5.13;4.60;;;6.00;99.90;;;;;;5012491;28;20204;-82
2023/03/15 07:46:19;;;;;;;5.83;5.17;;;6.00;99.90;;;;;;5015375;28;20194;-81
2023/03/15 07:48:45;;;;;;;6.33;5.73;;;6.00;99.90;;;;;;5028315;28;20238;-82
2023/03/15 07:51:12;;;;;;;8.07;7.30;;;6.00;99.90;;;;;;4995212;28;20585;-82
2023/03/15 07:53:37;;;;;;;10.30;8.00;;;6.00;99.90;;;;;;5012214;28;20695;-82
2023/03/15 07:56:04;;;;;;;8.52;7.72;;;6.00;99.90;;;;;;5013542;28;20202;-81
2023/03/15 07:58:30;;;;;;;8.27;6.75;;;5.90;99.90;;;;;;5015015;28;20181;-81
2023/03/15 08:00:56;;;;;;;8.23;7.50;;;5.90;99.90;;;;;;5012901;28;20195;-82
2023/03/15 08:03:28;;;;;;;9.43;7.25;;;5.90;99.90;;;;;;5008754;28;20178;-81
2023/03/15 08:05:54;;;;;;;7.65;6.95;;;5.90;99.90;;;;;;5014818;28;20174;-82
2023/03/15 08:08:20;;;;;;;8.27;7.47;;;5.90;99.90;;;;;;5009554;28;20709;-82
2023/03/15 08:10:45;;;;;;;9.57;8.37;;;5.90;99.90;;;;;;5013412;28;21136;-82
2023/03/15 08:13:11;;;;;;;8.57;7.17;;;5.90;99.90;;;;;;4996113;28;20185;-82
2023/03/15 08:15:38;;;;;;;7.70;7.00;;;5.90;99.90;;;;;;4996710;28;20581;-82
2023/03/15 08:18:05;;;;;;;7.80;7.00;;;5.90;99.90;;;;;;5014141;28;20190;-81
2023/03/15 08:20:32;;;;;;;8.90;8.02;;;6.00;99.90;;;;;;5012346;28;20704;-81
2023/03/15 08:22:58;;;;;;;8.93;7.78;;;6.00;99.90;;;;;;4998605;28;20175;-82
2023/03/15 08:25:25;;;;;;;8.95;8.10;;;6.00;99.90;;;;;;5010997;28;20182;-82
2023/03/15 08:27:51;;;;;;;9.43;7.25;;;6.00;99.90;;;;;;5012828;28;20229;-82
2023/03/15 08:30:19;;;;;;;7.63;6.50;;;6.10;99.90;;;;;;5012231;28;20193;-80
2023/03/15 08:32:47;;;;;;;9.02;8.13;;;6.10;99.90;;;;;;5010062;28;20175;-80
2023/03/15 08:35:15;;;;;;;9.20;8.30;;;6.10;99.90;;;;;;4995407;28;20257;-80
2023/03/15 08:37:41;;;;;;;8.63;7.82;;;6.20;99.90;;;;;;5010051;28;20326;-80
2023/03/15 08:40:09;;;;;;;9.50;7.77;;;6.30;99.90;;;;;;5012234;28;20611;-81
2023/03/15 08:42:36;;;;;;;10.65;8.43;;;6.30;99.90;;;;;;5012950;28;20646;-81
2023/03/15 08:45:06;;;;;;;8.82;7.97;;;6.40;99.90;;;;;;5013657;28;20177;-79
2023/03/15 08:47:35;;;;;;;8.05;7.35;;;6.40;99.90;;;;;;5011563;28;20237;-80
2023/03/15 08:50:07;;;;;;;11.85;6.85;;;6.50;99.90;;;;;;5012356;28;20170;-80
2023/03/15 08:52:33;;;;;;;8.38;7.13;;;6.60;99.90;;;;;;5011452;28;20174;-80
2023/03/15 08:54:58;;;;;;;9.15;6.88;;;6.70;99.90;;;;;;5011637;28;20212;-80
2023/03/15 08:57:25;;;;;;;8.03;7.23;;;6.80;99.90;;;;;;5010533;28;20225;-80
2023/03/15 08:59:52;;;;;;;8.10;6.88;;;6.90;99.90;;;;;;4995856;28;20182;-80
2023/03/15 09:02:18;;;;;;;10.10;7.72;;;7.00;99.90;;;;;;4994908;28;20182;-80
2023/03/15 09:04:44;;;;;;;7.40;6.20;;;7.10;99.90;;;;;;5012444;28;20178;-81
2023/03/15 09:07:11;;;;;;;6.40;5.40;;;7.20;99.90;;;;;;5011648;28;20209;-81
2023/03/15 09:09:37;;;;;;;4.95;4.55;;;7.20;99.90;;;;;;5010966;28;20286;-81
2023/03/15 09:12:03;;;;;;;6.35;5.55;;;7.30;99.90;;;;;;5011556;28;20186;-80
2023/03/15 09:14:29;;;;;;;7.50;6.53;;;7.30;99.90;;;;;;5012588;28;20163;-80
2023/03/15 09:16:55;;;;;;;8.73;6.57;;;7.40;99.90;;;;;;5011454;28;20655;-80
2023/03/15 09:19:20;;;;;;;5.90;5.30;;;7.50;99.90;;;;;;5011361;28;20957;-81
2023/03/15 09:21:46;;;;;;;5.50;4.70;;;7.60;99.90;;;;;;5012638;28;20186;-81
2023/03/15 09:24:12;;;;;;;6.50;5.20;;;7.70;99.90;;;;;;4995018;28;20174;-81
2023/03/15 09:26:38;;;;;;;6.30;4.68;;;7.70;99.90;;;;;;5009605;28;20233;-81
2023/03/15 09:29:04;;;;;;;5.87;4.77;;;7.80;99.90;;;;;;5011292;28;20572;-81
2023/03/15 09:31:31;;;;;;;7.60;6.13;;;7.80;99.90;;;;;;5012051;28;20634;-81
2023/03/15 09:33:57;;;;;;;7.05;6.28;;;7.90;99.90;;;;;;5012304;28;20290;-81
2023/03/15 09:36:23;;;;;;;5.65;4.05;;;8.50;99.90;;;;;;5010795;28;20717;-81
2023/03/15 09:38:49;;;;;;;4.87;4.40;;;9.60;99.90;;;;;;5013802;28;20190;-81
2023/03/15 09:41:30;;;;;;;5.73;4.00;;;10.80;99.90;;;;;;5006768;28;20182;-81
2023/03/15 09:43:58;;;;;;;5.50;4.30;;;12.00;99.90;;;;;;5010945;28;20573;-81
2023/03/15 09:46:39;;;;;;;6.13;2.77;;;13.40;99.90;;;;;;5011982;28;21034;-78
2023/03/15 09:49:20;;;;;;;2.77;2.47;;;14.60;99.90;;;;;;4994816;28;20647;-78
2023/03/15 09:52:02;;;;;;;4.80;3.13;;;15.60;99.90;;;;;;4993095;28;20650;-78
2023/03/15 09:54:50;;;;;;;5.03;2.83;;;16.60;99.90;;;;;;5009441;28;20775;-78
2023/03/15 09:57:20;;;;;;;5.70;3.20;;;17.40;99.90;;;;;;5009867;28;20633;-78
2023/03/15 09:59:51;;;;;;;5.10;2.97;;;18.30;99.90;;;;;;4989491;28;20651;-79
2023/03/15 10:02:29;;;;;;;2.97;2.50;;;19.10;99.90;;;;;;4974447;28;20606;-79
2023/03/15 10:05:15;;;;;;;3.93;2.60;;;19.80;99.90;;;;;;4990709;28;20570;-77
2023/03/15 10:07:41;;;;;;;7.37;2.10;;;20.50;99.90;;;;;;5000760;28;20640;-79
2023/03/15 10:10:36;;;;;;;3.20;2.47;;;21.10;99.90;;;;;;5009937;28;20581;-78
2023/03/15 10:13:23;;;;;;;6.33;1.97;;;21.50;99.90;;;;;;5010291;28;20178;-78
2023/03/15 10:16:04;;;;;;;3.03;1.50;;;21.50;99.90;;;;;;5009636;28;20625;-77
2023/03/15 10:18:47;;;;;;;3.00;1.50;;;21.60;99.90;;;;;;5011023;28;21194;-77
2023/03/15 10:21:44;;;;;;;3.27;1.60;;;21.30;99.90;;;;;;4987458;28;20721;-78
2023/03/15 10:24:33;;;;;;;3.57;1.50;;;20.80;99.90;;;;;;5005086;28;20620;-77
2023/03/15 10:27:20;;;;;;;3.60;1.77;;;20.20;99.90;;;;;;4973920;28;20629;-77
2023/03/15 10:29:51;;;;;;;2.53;1.40;;;19.80;99.90;;;;;;4991985;28;20586;-77
2023/03/15 10:32:18;;;;;;;3.40;1.57;;;19.70;99.90;;;;;;4993353;28;20601;-78
2023/03/15 10:34:51;;;;;;;3.47;1.20;;;19.30;99.90;;;;;;5009438;28;20601;-78
2023/03/15 10:37:18;;;;;;;4.60;1.40;;;19.10;99.90;;;;;;5009665;28;20627;-78
2023/03/15 10:39:53;;;;;;;3.30;1.00;;;19.10;99.90;;;;;;5005577;28;20612;-79
2023/03/15 10:42:26;;;;;;;2.20;1.17;;;19.30;99.90;;;;;;5009514;28;20597;-78
2023/03/15 10:44:52;;;;;;;4.07;2.10;;;19.40;99.90;;;;;;5011060;28;20977;-79
2023/03/15 10:47:20;;;;;;;3.57;1.93;;;19.30;99.90;;;;;;5009567;28;20661;-79
2023/03/15 10:49:46;;;;;;;2.40;1.40;;;19.10;99.90;;;;;;5025669;28;20190;-79
2023/03/15 10:52:39;;;;;;;4.30;1.50;;;18.90;99.90;;;;;;4994531;28;20838;-79
2023/03/15 10:55:15;;;;;;;3.90;1.10;;;18.80;99.90;;;;;;5010723;28;20593;-78
2023/03/15 10:57:52;;;;;;;5.10;1.40;;;19.10;99.90;;;;;;5008137;28;20644;-78
2023/03/15 11:00:32;;;;;;;2.90;1.10;;;19.30;99.90;;;;;;5010446;28;20628;-78
2023/03/15 11:03:16;;;;;;;2.80;1.00;;;19.70;99.90;;;;;;5010755;28;20592;-78
2023/03/15 11:05:46;;;;;;;2.27;0.87;;;19.90;99.90;;;;;;5025779;28;20605;-78
2023/03/15 11:08:18;;;;;;;2.83;0.90;;;20.00;99.90;;;;;;5010918;28;20791;-78
2023/03/15 11:10:46;;;;;;;2.80;1.10;;;19.80;99.90;;;;;;5010509;28;20578;-79
2023/03/15 11:13:24;;;;;;;2.33;0.90;;;19.50;99.90;;;;;;5004780;28;20647;-78
2023/03/15 11:16:06;;;;;;;2.83;0.83;;;19.10;99.90;;;;;;5010760;28;20636;-78
2023/03/15 11:19:00;;;;;;;2.67;0.90;;;18.80;99.90;;;;;;4993178;28;20589;-78
2023/03/15 11:21:33;;;;;;;3.23;1.30;;;18.90;99.90;;;;;;5003799;28;20612;-79
2023/03/15 11:24:02;;;;;;;2.93;1.57;;;19.10;99.90;;;;;;5010505;28;20589;-81
2023/03/15 11:26:32;;;;;;;3.73;1.10;;;19.40;99.90;;;;;;5010760;28;20967;-80
2023/03/15 11:29:04;;;;;;;2.93;1.07;;;19.70;99.90;;;;;;5013135;28;21053;-79
2023/03/15 11:31:30;;;;;;;2.23;1.20;;;19.80;99.90;;;;;;5013049;28;20569;-79
2023/03/15 11:34:19;;;;;;;3.47;1.00;;;20.10;99.90;;;;;;5012783;28;20597;-79
2023/03/15 11:36:52;;;;;;;2.80;1.30;;;20.30;99.90;;;;;;4996773;28;20708;-80
2023/03/15 11:39:32;;;;;;;3.33;1.70;;;20.60;99.90;;;;;;5012998;28;20639;-79
2023/03/15 11:42:05;;;;;;;3.00;0.80;;;20.90;99.90;;;;;;4996462;28;20593;-78
2023/03/15 11:44:46;;;;;;;3.53;1.47;;;21.20;99.90;;;;;;4996701;28;20613;-78
2023/03/15 11:47:22;;;;;;;3.57;1.03;;;21.50;99.90;;;;;;5012436;28;20714;-78
2023/03/15 11:49:54;;;;;;;2.47;0.80;;;21.70;99.90;;;;;;5013719;28;20642;-78
2023/03/15 11:52:25;;;;;;;3.90;1.27;;;21.80;99.90;;;;;;5009744;28;20649;-78
2023/03/15 11:54:56;;;;;;;3.93;0.90;;;21.80;98.40;;;;;;5013158;28;20647;-78
2023/03/15 11:57:36;;;;;;;4.37;1.23;;;21.80;97.60;;;;;;5012371;28;20624;-78
2023/03/15 12:00:37;;;;;;;2.63;0.90;;;21.70;96.20;;;;;;5014274;28;20765;-78
2023/03/15 12:03:34;;;;;;;2.77;1.03;;;21.50;94.50;;;;;;5004024;28;20597;-77
2023/03/15 12:06:07;;;;;;;4.30;0.90;;;21.20;94.50;;;;;;4992242;28;20700;-79
2023/03/15 12:08:44;;;;;;;2.17;0.90;;;21.10;95.10;;;;;;5010312;28;20640;-78
2023/03/15 12:11:33;;;;;;;2.27;0.80;;;21.00;96.00;;;;;;5009060;28;20727;-79
2023/03/15 12:13:59;;;;;;;4.40;1.10;;;20.80;94.90;;;;;;5001384;28;20677;-78
2023/03/15 12:16:28;;;;;;;3.10;0.70;;;20.70;94.40;;;;;;5012396;28;20763;-78
2023/03/15 12:18:58;;;;;;;2.30;0.83;;;20.40;92.90;;;;;;5011971;28;20650;-78
2023/03/15 12:21:42;;;;;;;3.10;0.90;;;20.20;91.60;;;;;;5012230;28;20594;-79
2023/03/15 12:24:23;;;;;;;2.53;0.90;;;20.00;91.10;;;;;;5011264;28;21211;-78
2023/03/15 12:27:15;;;;;;;1.80;0.80;;;19.80;90.20;;;;;;5011254;28;20625;-78
2023/03/15 12:29:44;;;;;;;2.63;0.83;;;19.50;87.00;;;;;;5013396;28;20584;-79
2023/03/15 12:32:14;;;;;;;1.97;0.80;;;19.00;86.40;;;;;;5013263;28;20664;-78
2023/03/15 12:34:56;;;;;;;4.33;1.27;;;18.60;87.00;;;;;;5013305;28;20588;-80
2023/03/15 12:37:23;;;;;;;2.33;0.80;;;18.30;84.90;;;;;;5011926;28;21204;-79
2023/03/15 12:39:58;;;;;;;6.30;1.20;;;18.10;89.40;;;;;;5013532;28;21028;-79
2023/03/15 12:42:30;;;;;;;3.77;1.20;;;18.00;90.30;;;;;;5012790;28;20608;-80
2023/03/15 12:45:14;;;;;;;3.30;1.00;;;18.10;91.10;;;;;;5012301;28;20596;-80
2023/03/15 12:48:11;;;;;;;2.83;0.80;;;18.00;90.20;;;;;;5012313;28;20704;-80
2023/03/15 12:50:46;;;;;;;2.77;1.10;;;18.00;91.10;;;;;;4992883;28;21029;-80
2023/03/15 12:53:28;;;;;;;2.37;0.87;;;18.00;91.20;;;;;;5012303;28;21146;-80
2023/03/15 12:55:56;;;;;;;2.43;1.03;;;18.00;90.90;;;;;;5011146;28;20576;-80
2023/03/15 12:58:32;;;;;;;3.40;1.00;;;18.00;91.80;;;;;;5009176;28;20628;-80
2023/03/15 13:01:01;;;;;;;2.17;0.80;;;17.80;88.70;;;;;;5011954;28;20599;-80
2023/03/15 13:03:27;;;;;;;1.80;0.70;;;17.60;87.30;;;;;;4991021;28;20582;-80
2023/03/15 13:06:12;;;;;;;3.10;1.20;;;17.30;84.90;;;;;;4992302;28;20941;-80
2023/03/15 13:08:49;;;;;;;2.63;0.80;;;16.80;72.50;;;;;;4991399;28;20206;-80
2023/03/15 13:11:36;;;;;;;3.40;1.83;;;16.50;81.90;;;;;;4993191;28;20574;-79
2023/03/15 13:14:10;;;;;;;3.17;1.00;;;16.40;83.50;;;;;;5009774;28;20680;-80
2023/03/15 13:16:48;;;;;;;3.03;1.20;;;16.20;84.50;;;;;;5012752;28;20613;-80
2023/03/15 13:19:16;;;;;;;3.50;1.00;;;16.20;87.40;;;;;;5012858;28;20580;-80
2023/03/15 13:22:13;;;;;;;2.57;1.00;;;16.10;89.80;;;;;;5012796;28;20589;-80